Haleiwa, HI (96712)

11:35 PM HST on April 25, 2015 (GMT -1000)
GTA - South Range | | Change Station
CLOSE
Current Station
Personal Weather Station
Location: Wahiaw%u0101, HI
Elevation: 881 ft
Nearby Weather Stations

Elev 881 ft 21.48 °N, 158.06 °W | Updated 3 minutes ago

Clear
Clear
70.0 °F
Feels Like 70.0 °F
N
4.0
Wind Variable Wind from WSW
Gusts 7.0 mph

Today
High -- | Low -- °F
--% Chance of Precip.
Yesterday
High -- | Low -- °F
Precip. -- in
6:05 AM 6:55 PM
First Quarter, 54% visible
Pressure 29.98 in
Visibility 10.0 miles
Clouds Clear
Dew Point 68 °F
Humidity 93%
Rainfall in
Snow Depth Not available.
UV 0 out of 12
Pollen Not available.
Air Quality Not available.
Flu Activity Regional
METAR PHHI 260858Z AUTO 17004KT 10SM CLR 21/20 A3000 RMK AO2 SLP150 T02090196 50005 $

More Conditions Fewer Conditions

Pressure 29.98 in
Visibility 10.0 miles
Clouds Clear
Dew Point 68 °F
Humidity 93%
Rainfall in
Snow Depth Not available.
UV 0 out of 12
Pollen Not available.
Air Quality Not available.
Flu Activity Regional
METAR PHHI 260858Z AUTO 17004KT 10SM CLR 21/20 A3000 RMK AO2 SLP150 T02090196 50005 $

More Conditions Fewer Conditions

10-Day Weather Forecast

Almanac

Astronomy

Apr. 25, 2015 Rise Set
Actual Time
Civil Twilight
Nautical Twilight
Astronomical Twilight
Moon
Length of Visible Light
Length of Day
Tomorrow will be .
, % of the Moon is Illuminated

Today's Extremes

State Highs State Lows

Community

WunderPhotos

Upload Photos

1,816,953 photos uploaded!

WunderBlogs® & News

Nearby

Air Quality

  Air Quality AQ Index Pollutant
Not available.

Snow Depth

Station Depth Elevation

Earthquake Activity

City Distance Mag. Time & Date
Minimum magnitude displayed is 2.5.

Coastal Water Temperatures

Place Temperature

Stations

Nearby Weather Stations

Station Location Temp. Windchill Dew Point Humidity Wind Precip. Elev Updated Type